Time;durP1;ratioP1;P1;durP2;ratioP2;P2;SDS_P1;SDS_P2;PMS_P1;PMS_P2;Temp;Humidity;BMP_temperature;BMP_pressure;BME280_temperature;BME280_humidity;BME280_pressure;Samples;Min_cycle;Max_cycle;Signal;HPM_P1;HPM_P2
2023/10/21 00:00:20;;;;;;;0.73;0.73;;;18.90;60.40;;;;;;5107714;27;45275;-74
2023/10/21 00:02:47;;;;;;;1.00;0.88;;;18.90;60.40;;;;;;5107764;27;45451;-75
2023/10/21 00:05:13;;;;;;;1.08;0.60;;;18.90;60.40;;;;;;5107238;27;45453;-73
2023/10/21 00:07:40;;;;;;;0.70;0.70;;;18.90;60.30;;;;;;5114840;27;45343;-74
2023/10/21 00:10:08;;;;;;;0.55;0.55;;;18.90;60.30;;;;;;5128169;27;45264;-73
2023/10/21 00:12:35;;;;;;;1.42;0.70;;;18.90;60.30;;;;;;5127868;27;45526;-73
2023/10/21 00:15:05;;;;;;;0.65;0.50;;;18.90;60.30;;;;;;5127735;27;46723;-73
2023/10/21 00:17:31;;;;;;;0.43;0.40;;;18.90;60.30;;;;;;5127715;27;45244;-76
2023/10/21 00:19:59;;;;;;;0.88;0.70;;;18.90;60.30;;;;;;5127937;27;45343;-76
2023/10/21 00:22:26;;;;;;;0.70;0.63;;;18.90;60.20;;;;;;5128000;27;45278;-75
2023/10/21 00:24:53;;;;;;;2.40;0.70;;;18.80;60.10;;;;;;5127765;27;46705;-76
2023/10/21 00:27:23;;;;;;;2.10;0.70;;;18.90;60.20;;;;;;5127901;27;45446;-76
2023/10/21 00:29:50;;;;;;;0.77;0.75;;;18.80;60.20;;;;;;5127936;27;45310;-76
2023/10/21 00:32:18;;;;;;;1.10;0.60;;;18.80;60.30;;;;;;5127799;27;45546;-76
2023/10/21 00:34:45;;;;;;;1.75;0.70;;;18.80;60.30;;;;;;5127588;27;47092;-76
2023/10/21 00:37:11;;;;;;;1.23;0.60;;;18.80;60.30;;;;;;5110740;27;45260;-76
2023/10/21 00:39:39;;;;;;;0.40;0.40;;;18.80;60.20;;;;;;5108223;27;45262;-76
2023/10/21 00:42:06;;;;;;;0.95;0.50;;;18.80;60.10;;;;;;5111264;27;45403;-76
2023/10/21 00:44:33;;;;;;;0.98;0.75;;;18.80;60.10;;;;;;5110424;27;46383;-75
2023/10/21 00:47:00;;;;;;;0.82;0.65;;;18.80;60.20;;;;;;5110695;27;45497;-76
2023/10/21 00:49:28;;;;;;;0.52;0.52;;;18.80;60.20;;;;;;5110659;27;45198;-75
2023/10/21 00:51:55;;;;;;;0.80;0.80;;;18.80;60.30;;;;;;5110960;27;45408;-76
2023/10/21 00:54:22;;;;;;;0.80;0.80;;;18.80;60.30;;;;;;5110067;27;46664;-76
2023/10/21 00:56:49;;;;;;;1.55;0.50;;;18.70;60.30;;;;;;5109529;27;45404;-76
2023/10/21 00:59:16;;;;;;;0.65;0.65;;;18.70;60.30;;;;;;5110383;27;45239;-75
2023/10/21 01:01:43;;;;;;;1.50;0.63;;;18.70;60.30;;;;;;5111113;27;45332;-76
2023/10/21 01:04:10;;;;;;;0.50;0.50;;;18.70;60.20;;;;;;5110880;27;47616;-76
2023/10/21 01:06:38;;;;;;;0.50;0.50;;;18.70;60.30;;;;;;5110877;27;45362;-76
2023/10/21 01:09:06;;;;;;;0.50;0.50;;;18.70;60.30;;;;;;5130675;27;45199;-76
2023/10/21 01:11:32;;;;;;;0.60;0.60;;;18.70;60.20;;;;;;5131192;27;45280;-76
2023/10/21 01:13:59;;;;;;;0.40;0.40;;;18.70;60.30;;;;;;5131104;27;46658;-74
2023/10/21 01:16:28;;;;;;;1.10;0.68;;;18.70;60.30;;;;;;5131131;27;45414;-73
2023/10/21 01:18:54;;;;;;;0.50;0.50;;;18.70;60.40;;;;;;5131951;27;45339;-76
2023/10/21 01:21:21;;;;;;;0.52;0.40;;;18.70;60.30;;;;;;5131565;27;45448;-73
2023/10/21 01:23:49;;;;;;;0.50;0.50;;;18.70;60.30;;;;;;5130755;27;45380;-76
2023/10/21 01:26:16;;;;;;;1.25;0.60;;;18.70;60.20;;;;;;5131357;27;45353;-76
2023/10/21 01:28:43;;;;;;;0.32;0.32;;;18.70;60.20;;;;;;5131360;27;45396;-74
2023/10/21 01:31:10;;;;;;;0.50;0.50;;;18.70;60.30;;;;;;5131670;27;45282;-74
2023/10/21 01:33:37;;;;;;;0.70;0.47;;;18.70;60.20;;;;;;5129784;27;46393;-74
2023/10/21 01:36:04;;;;;;;0.70;0.65;;;18.70;60.20;;;;;;5122385;27;45418;-73
2023/10/21 01:38:31;;;;;;;0.50;0.50;;;18.60;60.20;;;;;;5108687;27;45361;-72
2023/10/21 01:40:59;;;;;;;0.40;0.40;;;18.60;60.20;;;;;;5109338;27;45500;-74
2023/10/21 01:43:26;;;;;;;0.50;0.40;;;18.60;61.00;;;;;;5109639;27;45635;-75
2023/10/21 01:45:52;;;;;;;0.45;0.45;;;18.60;60.10;;;;;;5109222;27;45310;-75
2023/10/21 01:48:19;;;;;;;1.23;0.70;;;18.60;60.10;;;;;;5109551;27;45289;-74
2023/10/21 01:50:47;;;;;;;0.50;0.50;;;18.60;60.10;;;;;;5109101;27;45303;-76
2023/10/21 01:53:14;;;;;;;0.40;0.40;;;18.60;60.20;;;;;;5109052;27;45621;-74
2023/10/21 01:55:42;;;;;;;1.17;0.50;;;18.60;60.10;;;;;;5109330;27;45325;-76
2023/10/21 01:58:10;;;;;;;0.63;0.63;;;18.60;60.10;;;;;;5109340;27;45343;-76
2023/10/21 02:00:37;;;;;;;0.50;0.50;;;18.60;60.10;;;;;;5109659;27;45301;-76
2023/10/21 02:03:04;;;;;;;0.75;0.68;;;18.60;60.00;;;;;;5108648;27;45390;-73
2023/10/21 02:05:31;;;;;;;0.63;0.50;;;18.60;60.10;;;;;;5108616;27;45306;-73
2023/10/21 02:07:58;;;;;;;1.10;0.57;;;18.60;60.10;;;;;;5109694;27;45377;-75
2023/10/21 02:10:25;;;;;;;0.40;0.40;;;18.60;60.10;;;;;;5109623;27;45253;-76
2023/10/21 02:12:52;;;;;;;0.60;0.60;;;18.60;60.00;;;;;;5108400;27;45334;-75
2023/10/21 02:15:20;;;;;;;0.30;0.30;;;18.60;59.90;;;;;;5107841;27;45451;-75
2023/10/21 02:17:47;;;;;;;0.40;0.40;;;18.60;60.00;;;;;;5108094;27;45223;-76
2023/10/21 02:20:14;;;;;;;0.45;0.25;;;18.60;60.00;;;;;;5108281;27;45434;-74
2023/10/21 02:22:41;;;;;;;0.30;0.30;;;18.60;60.00;;;;;;5107819;27;46392;-75
2023/10/21 02:25:09;;;;;;;0.52;0.50;;;18.60;60.00;;;;;;5107138;27;45374;-75
2023/10/21 02:27:39;;;;;;;0.40;0.40;;;18.60;59.90;;;;;;5107820;27;45511;-75
2023/10/21 02:30:08;;;;;;;0.30;0.30;;;18.60;59.90;;;;;;5108012;27;45315;-74
2023/10/21 02:32:37;;;;;;;0.22;0.22;;;18.60;60.00;;;;;;5066898;27;1146533;-76
2023/10/21 02:35:05;;;;;;;0.30;0.30;;;18.60;59.90;;;;;;5108686;27;45249;-75
2023/10/21 02:37:31;;;;;;;0.40;0.40;;;18.60;59.90;;;;;;5128753;27;45278;-75
2023/10/21 02:39:58;;;;;;;0.75;0.40;;;18.60;59.90;;;;;;5129837;27;45385;-75
2023/10/21 02:42:25;;;;;;;0.30;0.30;;;18.60;59.90;;;;;;5129163;27;47100;-75
2023/10/21 02:44:52;;;;;;;0.20;0.20;;;18.60;59.90;;;;;;5129417;27;45293;-75
2023/10/21 02:47:19;;;;;;;0.30;0.30;;;18.60;60.00;;;;;;5129439;27;45301;-76
2023/10/21 02:49:47;;;;;;;0.30;0.30;;;18.60;59.90;;;;;;5129578;27;45265;-75
2023/10/21 02:52:14;;;;;;;0.70;0.40;;;18.50;59.90;;;;;;5129263;27;45757;-75
2023/10/21 02:54:41;;;;;;;0.40;0.40;;;18.50;59.90;;;;;;5128939;27;45391;-75
2023/10/21 02:57:08;;;;;;;0.47;0.47;;;18.50;59.90;;;;;;5129224;27;45333;-75
2023/10/21 02:59:35;;;;;;;0.30;0.30;;;18.50;59.90;;;;;;5129487;27;45379;-75
2023/10/21 03:02:02;;;;;;;1.38;0.47;;;18.50;59.90;;;;;;5128253;27;47245;-75
2023/10/21 03:04:28;;;;;;;0.35;0.30;;;18.50;59.90;;;;;;5129075;27;45492;-75
2023/10/21 03:06:57;;;;;;;0.43;0.30;;;18.50;59.90;;;;;;5128159;27;45379;-75
2023/10/21 03:09:23;;;;;;;1.17;0.40;;;18.50;59.90;;;;;;5108070;27;45355;-75
2023/10/21 03:11:50;;;;;;;0.35;0.35;;;18.50;59.90;;;;;;5107572;27;46245;-75
2023/10/21 03:14:17;;;;;;;0.40;0.40;;;18.50;60.00;;;;;;5108121;27;45387;-75
2023/10/21 03:16:44;;;;;;;0.47;0.45;;;18.50;60.00;;;;;;5108271;27;45378;-75
2023/10/21 03:19:11;;;;;;;0.20;0.20;;;18.50;60.00;;;;;;5108639;27;45293;-75
2023/10/21 03:21:38;;;;;;;0.10;0.10;;;18.50;59.90;;;;;;5108158;27;47290;-75
2023/10/21 03:24:07;;;;;;;0.32;0.32;;;18.50;59.90;;;;;;5107981;27;45273;-75
2023/10/21 03:26:34;;;;;;;0.30;0.30;;;18.50;59.90;;;;;;5108032;27;45360;-75
2023/10/21 03:29:00;;;;;;;0.30;0.30;;;18.50;60.00;;;;;;5108264;27;45430;-75
2023/10/21 03:31:28;;;;;;;0.32;0.28;;;18.50;59.90;;;;;;5107899;27;46394;-75
2023/10/21 03:33:55;;;;;;;0.13;0.13;;;18.50;60.00;;;;;;5107432;27;45225;-75
2023/10/21 03:36:21;;;;;;;0.30;0.30;;;18.50;59.90;;;;;;5117396;27;45327;-75
2023/10/21 03:38:48;;;;;;;0.43;0.30;;;18.50;59.90;;;;;;5128740;27;45425;-75
2023/10/21 03:41:17;;;;;;;0.30;0.20;;;18.50;59.90;;;;;;5128325;27;46322;-75
2023/10/21 03:43:43;;;;;;;0.20;0.20;;;18.50;59.90;;;;;;5128326;27;45259;-76
2023/10/21 03:46:14;;;;;;;0.32;0.30;;;18.50;60.00;;;;;;5128596;27;45302;-75
2023/10/21 03:48:41;;;;;;;0.93;0.22;;;18.50;59.90;;;;;;5128472;27;45353;-76
2023/10/21 03:51:10;;;;;;;0.35;0.35;;;18.50;60.00;;;;;;5128133;27;45314;-74
2023/10/21 03:53:37;;;;;;;0.30;0.30;;;18.50;59.90;;;;;;5128096;27;45388;-73
2023/10/21 03:56:03;;;;;;;1.30;0.60;;;18.50;59.90;;;;;;5127490;27;45369;-74
2023/10/21 03:58:32;;;;;;;0.90;0.20;;;18.50;60.60;;;;;;5128420;27;45378;-75
2023/10/21 04:00:59;;;;;;;0.20;0.20;;;18.50;60.00;;;;;;5128160;27;46400;-75
2023/10/21 04:03:26;;;;;;;0.35;0.35;;;18.50;60.00;;;;;;5128155;27;45184;-75
2023/10/21 04:05:53;;;;;;;1.27;0.30;;;18.40;59.90;;;;;;5128182;27;45404;-76
2023/10/21 04:08:20;;;;;;;0.20;0.20;;;18.40;59.90;;;;;;5115220;27;45527;-76
2023/10/21 04:10:46;;;;;;;0.13;0.10;;;18.50;59.90;;;;;;5107313;27;45315;-75
2023/10/21 04:13:13;;;;;;;0.30;0.30;;;18.40;59.90;;;;;;5107181;27;45346;-75
2023/10/21 04:15:41;;;;;;;0.30;0.30;;;18.40;59.80;;;;;;5107283;27;45320;-75
2023/10/21 04:18:08;;;;;;;0.20;0.20;;;18.40;60.00;;;;;;5107563;27;45434;-74
2023/10/21 04:20:35;;;;;;;0.20;0.20;;;18.40;59.80;;;;;;5107028;27;45434;-75
2023/10/21 04:23:02;;;;;;;0.22;0.22;;;18.40;59.80;;;;;;5107395;27;45389;-75
2023/10/21 04:25:29;;;;;;;0.20;0.20;;;18.40;59.90;;;;;;5107542;27;45206;-75
2023/10/21 04:27:56;;;;;;;0.50;0.17;;;18.40;59.80;;;;;;5107420;27;45418;-75
2023/10/21 04:30:23;;;;;;;0.30;0.30;;;18.40;59.80;;;;;;5104642;27;45397;-75
2023/10/21 04:32:51;;;;;;;0.40;0.40;;;18.40;59.90;;;;;;5106731;27;45436;-75
2023/10/21 04:35:19;;;;;;;0.30;0.30;;;18.40;59.80;;;;;;5107725;27;45268;-74
2023/10/21 04:37:45;;;;;;;0.20;0.20;;;18.40;59.80;;;;;;5127387;27;45255;-74
2023/10/21 04:40:13;;;;;;;0.63;0.20;;;18.40;59.80;;;;;;5126936;27;45510;-75
2023/10/21 04:42:40;;;;;;;0.20;0.20;;;18.40;59.90;;;;;;5127562;27;45385;-75
2023/10/21 04:45:08;;;;;;;0.15;0.10;;;18.40;60.00;;;;;;5127650;27;45549;-75
2023/10/21 04:47:35;;;;;;;0.13;0.13;;;18.40;59.80;;;;;;5127999;27;45301;-75
2023/10/21 04:50:04;;;;;;;0.22;0.22;;;18.40;59.90;;;;;;5127286;27;46498;-75
2023/10/21 04:52:30;;;;;;;0.40;0.22;;;18.40;59.90;;;;;;5127421;27;45388;-75
2023/10/21 04:54:57;;;;;;;0.25;0.20;;;18.40;59.90;;;;;;5127707;27;45334;-74
2023/10/21 04:57:24;;;;;;;0.20;0.20;;;18.40;59.90;;;;;;5127307;27;45411;-75
2023/10/21 04:59:51;;;;;;;0.15;0.15;;;18.40;59.90;;;;;;5127249;27;46714;-76
2023/10/21 05:02:18;;;;;;;0.20;0.20;;;18.40;59.80;;;;;;5127563;27;45138;-75
2023/10/21 05:04:45;;;;;;;0.20;0.20;;;18.40;59.80;;;;;;5127475;27;45375;-75
2023/10/21 05:07:13;;;;;;;0.98;0.25;;;18.40;59.80;;;;;;5124181;27;45288;-75
2023/10/21 05:09:40;;;;;;;0.10;0.10;;;18.40;59.80;;;;;;5106470;27;46690;-75
2023/10/21 05:12:10;;;;;;;1.42;0.35;;;18.40;59.80;;;;;;5106529;27;45279;-75
2023/10/21 05:14:36;;;;;;;0.30;0.30;;;18.40;59.80;;;;;;5106787;27;45560;-74
2023/10/21 05:17:03;;;;;;;0.20;0.10;;;18.40;59.80;;;;;;5106762;27;45407;-74
2023/10/21 05:19:30;;;;;;;0.30;0.30;;;18.40;59.80;;;;;;5106383;27;45314;-75
2023/10/21 05:21:57;;;;;;;0.25;0.25;;;18.30;59.80;;;;;;5106319;27;45303;-74
2023/10/21 05:24:25;;;;;;;0.20;0.20;;;18.30;59.80;;;;;;5105813;27;45539;-74
2023/10/21 05:26:52;;;;;;;0.28;0.28;;;18.30;59.80;;;;;;5109393;27;45308;-74
2023/10/21 05:29:19;;;;;;;0.10;0.10;;;18.30;59.80;;;;;;5109817;27;46636;-73
2023/10/21 05:31:46;;;;;;;0.20;0.20;;;18.30;59.80;;;;;;5109895;27;45298;-75
2023/10/21 05:34:17;;;;;;;0.10;0.10;;;18.30;59.80;;;;;;5109591;27;45281;-75
2023/10/21 05:36:44;;;;;;;0.20;0.20;;;18.30;59.80;;;;;;5122897;27;45407;-74
2023/10/21 05:39:12;;;;;;;0.30;0.30;;;18.30;59.80;;;;;;5130415;27;45647;-75
2023/10/21 05:41:41;;;;;;;0.32;0.32;;;18.30;59.80;;;;;;5130270;27;45303;-74
2023/10/21 05:44:08;;;;;;;1.00;0.20;;;18.30;59.90;;;;;;5130569;27;45294;-74
2023/10/21 05:46:35;;;;;;;0.10;0.10;;;18.30;59.80;;;;;;5130749;27;45264;-74
2023/10/21 05:49:02;;;;;;;0.15;0.10;;;18.30;59.70;;;;;;5130399;27;45318;-74
2023/10/21 05:51:29;;;;;;;0.20;0.20;;;18.30;59.70;;;;;;5130342;27;45437;-74
2023/10/21 05:53:57;;;;;;;0.03;0.03;;;18.30;59.70;;;;;;5130804;27;45318;-75
2023/10/21 05:56:24;;;;;;;0.30;0.30;;;18.30;59.70;;;;;;5130564;27;45719;-74
2023/10/21 05:58:52;;;;;;;0.10;0.10;;;18.30;59.70;;;;;;5130218;27;47276;-75
2023/10/21 06:01:19;;;;;;;0.22;0.20;;;18.30;59.80;;;;;;5130274;27;45397;-74
2023/10/21 06:03:46;;;;;;;0.20;0.20;;;18.30;60.40;;;;;;5129995;27;45298;-74
2023/10/21 06:06:12;;;;;;;0.25;0.25;;;18.20;59.70;;;;;;5130330;27;45402;-74
2023/10/21 06:08:39;;;;;;;0.20;0.20;;;18.30;59.70;;;;;;5129239;27;45664;-74
2023/10/21 06:11:08;;;;;;;0.15;0.15;;;18.30;59.80;;;;;;5130102;27;45278;-74
2023/10/21 06:13:34;;;;;;;0.10;0.10;;;18.30;59.80;;;;;;5129815;27;45335;-75
2023/10/21 06:16:03;;;;;;;0.20;0.20;;;18.30;59.70;;;;;;5130104;27;45463;-75
2023/10/21 06:18:29;;;;;;;0.08;0.08;;;18.30;59.70;;;;;;5129731;27;47248;-75
2023/10/21 06:20:56;;;;;;;0.60;0.28;;;18.20;59.70;;;;;;5129576;27;45143;-75
2023/10/21 06:23:23;;;;;;;0.10;0.10;;;18.20;59.80;;;;;;5129579;27;45184;-75
2023/10/21 06:25:50;;;;;;;0.10;0.10;;;18.20;59.70;;;;;;5129938;27;45414;-75
2023/10/21 06:28:17;;;;;;;0.85;0.30;;;18.20;59.70;;;;;;5129578;27;45304;-77
2023/10/21 06:30:44;;;;;;;0.82;0.30;;;18.20;59.80;;;;;;5129775;27;45364;-75
2023/10/21 06:33:12;;;;;;;0.47;0.20;;;18.20;59.70;;;;;;5129347;27;45176;-74
2023/10/21 06:35:39;;;;;;;0.10;0.05;;;18.20;59.60;;;;;;5125953;27;45384;-75
2023/10/21 06:38:06;;;;;;;0.30;0.20;;;18.20;59.60;;;;;;5107433;27;46643;-75
2023/10/21 06:40:33;;;;;;;0.03;0.03;;;18.20;59.60;;;;;;5108862;27;45401;-74
2023/10/21 06:43:00;;;;;;;0.10;0.10;;;18.20;59.60;;;;;;5108924;27;45322;-75
2023/10/21 06:45:27;;;;;;;0.10;0.10;;;18.20;59.60;;;;;;5109136;27;45307;-74
2023/10/21 06:47:54;;;;;;;0.28;0.20;;;18.20;59.60;;;;;;5108740;27;45808;-75
2023/10/21 06:50:22;;;;;;;0.60;0.30;;;18.20;59.60;;;;;;5108177;27;45442;-74
2023/10/21 06:52:49;;;;;;;0.20;0.20;;;18.20;59.60;;;;;;5107977;27;45226;-75
2023/10/21 06:55:17;;;;;;;0.47;0.30;;;18.20;59.60;;;;;;5109169;27;45313;-75
2023/10/21 06:57:44;;;;;;;0.28;0.10;;;18.20;59.60;;;;;;5108447;27;45371;-74
2023/10/21 07:00:13;;;;;;;0.10;0.10;;;18.20;59.60;;;;;;5108360;27;45378;-74
2023/10/21 07:02:40;;;;;;;0.20;0.20;;;18.20;59.60;;;;;;5108854;27;45198;-74
2023/10/21 07:05:09;;;;;;;0.15;0.15;;;18.20;59.60;;;;;;5108663;27;45600;-73
2023/10/21 07:07:40;;;;;;;0.20;0.20;;;18.20;59.60;;;;;;5115015;27;46458;-75
2023/10/21 07:10:09;;;;;;;0.10;0.10;;;18.20;59.60;;;;;;5129318;27;45250;-74
2023/10/21 07:12:38;;;;;;;0.10;0.10;;;18.20;59.60;;;;;;5128623;27;45310;-74
2023/10/21 07:15:06;;;;;;;0.77;0.05;;;18.20;59.60;;;;;;5129275;27;45664;-74
2023/10/21 07:17:33;;;;;;;0.25;0.25;;;18.20;59.60;;;;;;5128284;27;45624;-74
2023/10/21 07:20:00;;;;;;;0.75;0.32;;;18.20;59.50;;;;;;5128718;27;45386;-74
2023/10/21 07:22:27;;;;;;;0.25;0.20;;;18.20;59.50;;;;;;5128993;27;45395;-74
2023/10/21 07:24:58;;;;;;;0.20;0.20;;;18.20;59.50;;;;;;5128174;27;45408;-73
2023/10/21 07:27:26;;;;;;;0.32;0.30;;;18.20;60.10;;;;;;5128566;27;45602;-73
2023/10/21 07:29:55;;;;;;;0.20;0.20;;;18.20;59.40;;;;;;5126883;27;45650;-73
2023/10/21 07:32:22;;;;;;;0.30;0.30;;;18.20;59.40;;;;;;5128714;27;45269;-73
2023/10/21 07:34:48;;;;;;;0.20;0.20;;;18.20;59.30;;;;;;5128933;27;45204;-74
2023/10/21 07:37:15;;;;;;;1.10;0.15;;;18.20;59.30;;;;;;5128428;27;45373;-74
2023/10/21 07:39:42;;;;;;;0.22;0.20;;;18.30;59.30;;;;;;5128368;27;45398;-73
2023/10/21 07:42:10;;;;;;;0.10;0.10;;;18.20;59.30;;;;;;5128148;27;45365;-73
2023/10/21 07:44:37;;;;;;;0.40;0.20;;;18.30;59.30;;;;;;5128811;27;45243;-73
2023/10/21 07:47:06;;;;;;;0.50;0.30;;;18.30;59.30;;;;;;5128312;27;46406;-72
2023/10/21 07:49:33;;;;;;;0.20;0.20;;;18.30;59.30;;;;;;5127761;27;45330;-73
2023/10/21 07:52:00;;;;;;;0.10;0.10;;;18.30;59.20;;;;;;5128444;27;45391;-74
2023/10/21 07:54:27;;;;;;;0.90;0.20;;;18.30;59.30;;;;;;5128728;27;45245;-75
2023/10/21 07:56:54;;;;;;;0.55;0.25;;;18.30;59.20;;;;;;5127685;27;45370;-75
2023/10/21 07:59:22;;;;;;;0.30;0.30;;;18.30;59.20;;;;;;5128417;27;45357;-75
2023/10/21 08:01:49;;;;;;;0.10;0.10;;;18.30;59.20;;;;;;5128494;27;45401;-75
2023/10/21 08:04:15;;;;;;;0.35;0.20;;;18.30;59.10;;;;;;5128558;27;45297;-74
2023/10/21 08:06:44;;;;;;;0.52;0.10;;;18.30;59.20;;;;;;5127837;27;46516;-75
2023/10/21 08:09:14;;;;;;;0.20;0.20;;;18.30;59.10;;;;;;5107742;27;45419;-75
2023/10/21 08:11:41;;;;;;;0.20;0.20;;;18.30;59.20;;;;;;5107650;27;45324;-74
2023/10/21 08:14:07;;;;;;;0.15;0.10;;;18.30;59.10;;;;;;5107692;27;45621;-73
2023/10/21 08:16:36;;;;;;;0.57;0.10;;;18.30;59.20;;;;;;5106949;27;46580;-75
2023/10/21 08:19:04;;;;;;;0.40;0.30;;;18.30;59.10;;;;;;5107149;27;45300;-74
2023/10/21 08:21:31;;;;;;;0.47;0.30;;;18.30;59.10;;;;;;5107797;27;45337;-74
2023/10/21 08:23:58;;;;;;;0.73;0.30;;;18.40;59.10;;;;;;5107645;27;45454;-75
2023/10/21 08:26:25;;;;;;;0.20;0.20;;;18.40;59.00;;;;;;5106327;27;46387;-73
2023/10/21 08:28:52;;;;;;;0.20;0.20;;;18.30;59.10;;;;;;5107230;27;45466;-74
2023/10/21 08:31:19;;;;;;;0.15;0.15;;;18.40;59.10;;;;;;5107299;27;45352;-75
2023/10/21 08:33:48;;;;;;;0.08;0.05;;;18.40;59.20;;;;;;5107277;27;45343;-75
2023/10/21 08:36:17;;;;;;;0.15;0.15;;;18.40;59.10;;;;;;5115508;27;46451;-75
2023/10/21 08:38:44;;;;;;;0.13;0.10;;;18.40;59.20;;;;;;5127650;27;45355;-73
2023/10/21 08:41:11;;;;;;;0.20;0.15;;;18.40;59.00;;;;;;5127782;27;45350;-75
2023/10/21 08:43:38;;;;;;;0.10;0.10;;;18.40;59.10;;;;;;5128043;27;45273;-75
2023/10/21 08:46:05;;;;;;;0.70;0.17;;;18.40;59.20;;;;;;5124921;27;46409;-75
2023/10/21 08:48:32;;;;;;;0.30;0.30;;;18.50;59.00;;;;;;5127482;27;45372;-74
2023/10/21 08:51:00;;;;;;;0.20;0.13;;;18.50;58.90;;;;;;5127620;27;45356;-75
2023/10/21 08:53:27;;;;;;;0.10;0.10;;;18.50;59.00;;;;;;5127925;27;45329;-74
2023/10/21 08:55:54;;;;;;;0.10;0.00;;;18.50;58.90;;;;;;5127173;27;46391;-75
2023/10/21 08:58:28;;;;;;;0.22;0.20;;;18.60;58.90;;;;;;5127471;27;45421;-74
2023/10/21 09:00:55;;;;;;;0.10;0.10;;;18.60;58.80;;;;;;5129071;27;45187;-75
2023/10/21 09:03:22;;;;;;;0.10;0.10;;;18.60;58.80;;;;;;5131277;27;45420;-75
2023/10/21 09:06:07;;;;;;;0.10;0.10;;;18.60;58.90;;;;;;5131022;27;45288;-75
2023/10/21 09:08:34;;;;;;;0.10;0.03;;;18.60;59.00;;;;;;5115880;27;45422;-74
2023/10/21 09:11:02;;;;;;;0.20;0.20;;;18.60;58.90;;;;;;5109996;27;45417;-74
2023/10/21 09:13:30;;;;;;;0.63;0.20;;;18.60;58.90;;;;;;5122179;27;45461;-75
2023/10/21 09:15:57;;;;;;;0.75;0.20;;;18.60;59.10;;;;;;5129940;27;47420;-75
2023/10/21 09:18:24;;;;;;;1.08;0.30;;;18.60;58.90;;;;;;5128924;27;45311;-73
2023/10/21 09:20:51;;;;;;;0.15;0.15;;;18.60;59.60;;;;;;5130304;27;45262;-73
2023/10/21 09:23:19;;;;;;;0.45;0.20;;;18.60;58.90;;;;;;5130815;27;45473;-73
2023/10/21 09:25:49;;;;;;;0.20;0.20;;;18.70;59.60;;;;;;5129961;27;47015;-73
2023/10/21 09:28:20;;;;;;;0.30;0.20;;;18.60;59.10;;;;;;5130256;27;45211;-73
2023/10/21 09:30:55;;;;;;;0.10;0.10;;;18.70;59.00;;;;;;5130070;27;45267;-73
2023/10/21 09:33:22;;;;;;;0.10;0.10;;;18.70;59.10;;;;;;5130154;27;45331;-73
2023/10/21 09:36:03;;;;;;;2.03;0.30;;;18.70;58.80;;;;;;5124395;27;46655;-74
2023/10/21 09:38:35;;;;;;;0.47;0.22;;;18.80;58.90;;;;;;5109700;27;45277;-76
2023/10/21 09:41:03;;;;;;;0.20;0.20;;;18.80;58.50;;;;;;5115718;27;45259;-76
2023/10/21 09:43:30;;;;;;;0.38;0.30;;;18.80;58.50;;;;;;5130274;27;45418;-75
2023/10/21 09:45:57;;;;;;;0.20;0.20;;;18.80;58.40;;;;;;5130321;27;45462;-79
2023/10/21 09:48:23;;;;;;;0.30;0.30;;;18.90;58.40;;;;;;5131214;27;45326;-78
2023/10/21 09:50:52;;;;;;;0.22;0.20;;;18.90;58.30;;;;;;5125836;27;45430;-79
2023/10/21 09:53:22;;;;;;;0.20;0.20;;;18.90;58.10;;;;;;5124285;27;45280;-79
2023/10/21 09:55:50;;;;;;;0.57;0.20;;;19.00;58.10;;;;;;5124281;27;46724;-79
2023/10/21 09:58:17;;;;;;;0.20;0.20;;;19.10;58.10;;;;;;5131561;27;45247;-78
2023/10/21 10:00:44;;;;;;;0.35;0.30;;;19.10;57.90;;;;;;5130795;27;45204;-80
2023/10/21 10:03:10;;;;;;;2.75;0.45;;;19.10;58.00;;;;;;5131337;27;45305;-78
2023/10/21 10:05:38;;;;;;;0.82;0.30;;;19.10;58.10;;;;;;5133112;27;45381;-76
2023/10/21 10:08:06;;;;;;;1.20;0.40;;;19.10;57.80;;;;;;5119002;27;45341;-77
2023/10/21 10:10:34;;;;;;;1.00;0.40;;;19.10;57.90;;;;;;5118341;27;45290;-77
2023/10/21 10:13:06;;;;;;;1.35;0.40;;;19.10;57.70;;;;;;5115925;27;45487;-73
2023/10/21 10:15:33;;;;;;;0.60;0.32;;;19.10;57.80;;;;;;5108481;27;46309;-74
2023/10/21 10:18:01;;;;;;;0.85;0.20;;;19.10;57.60;;;;;;5130000;27;45168;-78
2023/10/21 10:20:28;;;;;;;0.38;0.20;;;19.20;57.60;;;;;;5130073;27;45343;-77
2023/10/21 10:22:59;;;;;;;0.50;0.38;;;19.20;57.60;;;;;;5130240;27;45367;-77
2023/10/21 10:25:27;;;;;;;0.43;0.43;;;19.20;57.80;;;;;;5134466;27;46427;-77
2023/10/21 10:27:58;;;;;;;0.25;0.25;;;19.20;58.00;;;;;;5131495;27;45443;-78
2023/10/21 10:30:30;;;;;;;0.68;0.35;;;19.20;57.90;;;;;;5135592;27;45272;-77
2023/10/21 10:32:57;;;;;;;1.73;0.28;;;19.30;58.00;;;;;;5135624;27;45461;-77
2023/10/21 10:35:34;;;;;;;3.05;0.50;;;19.30;57.90;;;;;;5132282;27;46386;-78
2023/10/21 10:38:01;;;;;;;0.32;0.28;;;19.40;57.80;;;;;;5111193;27;45333;-78
2023/10/21 10:40:34;;;;;;;1.92;0.28;;;19.40;57.70;;;;;;5113437;27;45357;-78
2023/10/21 10:43:03;;;;;;;1.63;0.43;;;19.40;57.60;;;;;;5112547;27;45481;-77
2023/10/21 10:45:32;;;;;;;0.45;0.30;;;19.50;57.60;;;;;;5116597;27;45360;-76
2023/10/21 10:48:01;;;;;;;1.25;0.20;;;19.60;57.60;;;;;;5131504;27;45184;-78
2023/10/21 10:50:28;;;;;;;1.55;0.20;;;19.70;58.10;;;;;;5129449;27;45217;-75
2023/10/21 10:52:55;;;;;;;0.47;0.30;;;19.80;57.40;;;;;;5130604;27;45387;-76
2023/10/21 10:55:22;;;;;;;1.20;0.30;;;20.00;57.30;;;;;;5111550;27;45736;-74
2023/10/21 10:57:51;;;;;;;1.15;0.50;;;20.10;57.00;;;;;;5128643;27;45453;-78
2023/10/21 11:00:21;;;;;;;2.30;0.30;;;20.30;56.90;;;;;;5129201;27;45737;-77
2023/10/21 11:02:49;;;;;;;0.55;0.30;;;20.30;56.50;;;;;;5128344;27;45396;-76
2023/10/21 11:05:17;;;;;;;0.63;0.30;;;20.40;56.60;;;;;;5129557;27;45861;-79
2023/10/21 11:07:44;;;;;;;0.20;0.20;;;20.40;56.20;;;;;;5120595;27;45332;-78
2023/10/21 11:10:14;;;;;;;2.30;0.30;;;20.40;56.40;;;;;;5126805;27;45547;-74
2023/10/21 11:12:41;;;;;;;0.85;0.60;;;20.30;56.20;;;;;;5126982;27;45390;-78
2023/10/21 11:15:12;;;;;;;1.70;0.80;;;20.20;55.00;;;;;;5128111;27;45422;-78
2023/10/21 11:17:39;;;;;;;0.50;0.50;;;20.10;54.80;;;;;;5128576;27;45174;-77
2023/10/21 11:20:08;;;;;;;1.60;0.38;;;20.00;54.40;;;;;;5129156;27;45270;-77
2023/10/21 11:22:35;;;;;;;1.08;0.50;;;19.90;54.20;;;;;;5126663;27;45394;-78
2023/10/21 11:25:03;;;;;;;0.82;0.43;;;19.80;54.10;;;;;;5128626;27;46346;-77
2023/10/21 11:27:30;;;;;;;4.18;0.65;;;19.80;54.00;;;;;;5128052;27;45333;-77
2023/10/21 11:29:57;;;;;;;0.85;0.30;;;19.80;54.00;;;;;;5128195;27;45502;-77
2023/10/21 11:32:26;;;;;;;0.45;0.40;;;19.80;54.30;;;;;;5130082;27;45404;-77
2023/10/21 11:34:52;;;;;;;0.85;0.38;;;19.80;54.40;;;;;;5128406;27;46970;-77
2023/10/21 11:37:21;;;;;;;1.27;0.35;;;20.00;54.10;;;;;;5111612;27;45484;-77
2023/10/21 11:39:49;;;;;;;0.50;0.50;;;20.10;54.30;;;;;;5108040;27;45318;-77
2023/10/21 11:42:17;;;;;;;2.97;0.50;;;20.20;55.00;;;;;;5108321;27;45313;-77
2023/10/21 11:44:44;;;;;;;1.33;0.40;;;20.30;54.50;;;;;;5124939;27;46772;-81
2023/10/21 11:47:11;;;;;;;0.65;0.35;;;20.30;54.80;;;;;;5128289;27;45325;-78
2023/10/21 11:49:38;;;;;;;0.88;0.47;;;20.20;54.90;;;;;;5128992;27;45314;-77
2023/10/21 11:52:09;;;;;;;0.93;0.40;;;20.20;55.10;;;;;;5129435;27;45379;-79
2023/10/21 11:54:46;;;;;;;2.03;0.65;;;20.10;55.50;;;;;;5127668;27;45535;-78
2023/10/21 12:06:16;;;;;;;0.40;0.40;;;20.60;54.80;;;;;;5127815;27;45754;-80
2023/10/21 12:12:14;;;;;;;5.43;3.67;;;20.90;53.30;;;;;;5122752;27;45346;-80
2023/10/21 12:20:44;;;;;;;3.45;1.90;;;21.20;53.50;;;;;;5125290;27;45473;-80
2023/10/21 12:31:50;;;;;;;2.33;1.00;;;21.60;51.70;;;;;;5128810;27;45413;-79
2023/10/21 12:34:35;;;;;;;0.90;0.77;;;21.70;51.90;;;;;;5130894;27;45279;-80
2023/10/21 12:39:48;;;;;;;4.60;0.85;;;21.80;50.60;;;;;;5111022;27;45755;-71
2023/10/21 12:42:27;;;;;;;2.83;0.60;;;21.90;50.70;;;;;;5126780;27;45387;-70
2023/10/21 12:44:56;;;;;;;2.03;0.60;;;22.00;50.50;;;;;;5124827;27;45311;-71
2023/10/21 12:47:24;;;;;;;4.18;0.70;;;22.00;50.00;;;;;;5128634;27;45401;-71
2023/10/21 12:49:55;;;;;;;1.30;0.60;;;22.10;50.60;;;;;;5124961;27;45551;-75
2023/10/21 12:52:22;;;;;;;4.00;0.75;;;22.20;49.10;;;;;;5131938;27;45374;-69
2023/10/21 12:54:49;;;;;;;2.38;0.57;;;22.20;49.00;;;;;;5127054;27;45496;-73
2023/10/21 12:57:16;;;;;;;2.88;0.60;;;22.20;48.60;;;;;;5131235;27;45502;-73
2023/10/21 12:59:42;;;;;;;1.83;0.70;;;22.20;49.00;;;;;;5133200;27;45517;-77
2023/10/21 13:02:11;;;;;;;0.55;0.55;;;22.30;49.40;;;;;;5130418;27;45260;-73
2023/10/21 13:04:38;;;;;;;10.52;0.93;;;22.30;49.20;;;;;;5132024;27;45293;-74
2023/10/21 13:07:06;;;;;;;2.08;0.52;;;22.40;49.00;;;;;;5127489;27;45377;-72
2023/10/21 13:09:33;;;;;;;4.55;0.70;;;22.60;48.60;;;;;;5130894;27;45457;-71
2023/10/21 13:12:00;;;;;;;2.40;1.70;;;22.70;48.20;;;;;;5131259;27;45203;-71
2023/10/21 13:14:28;;;;;;;6.85;0.90;;;22.80;49.00;;;;;;5110740;27;45383;-74
2023/10/21 13:16:55;;;;;;;2.03;0.85;;;22.90;47.40;;;;;;5125105;27;45483;-71